Strona główna
METAR-TAF:

METAR-TAF

Lotnisko :

Heliport Ceuta

Ceuta, Hiszpania

Szerokość geograficzna: 35-53-33N, Długość geograficzna: 5-18-21W, wysokość: 2 m

Aktualna obserwacja pogody

Raport powstał 36 minut temu, godzina 19:00 UTC
Wiatr 3 kt z kierunków zmiennych
Temperatura 23°C
Wilgotność 83%
Ciśnienie 1009 hPa
Widzialność 10 km lub więcej
Brak chmur poniżej 1500 m i brak chmur cumulonimbus

METAR: GECE 251900Z AUTO VRB03KT CAVOK 23/20 Q1009

czas: 21:36 (19:36 UTC)

Prognoza

Raport powstał 5 godziny i 36 minut temu, godzina 14:00 UTC
Prognoza ważna od 25 godzina 15 UTC do 26 godzina 15 UTC
Wiatr 5 kt od południowy wschód
Widzialność 10 km lub więcej
Mało chmury na wysokości 2000 ft
Prawdopodobieństwo 30% :
Przejściowo
od 25 godzina 21 UTC do 26 godzina 05 UTC
Przerywane chmury na wysokości 1000 ft
Stopniowe zmiany
od 26 godzina 08 UTC do 26 godzina 10 UTC
Wiatr 13 kt od zachód

TAF: GECE 251400Z 2515/2615 13005KT 9999 FEW020 TX24/2613Z TN20/2606Z PROB30 TEMPO 2521/2605 BKN010 BECMG 2608/2610 27013KT

Obserwacja i prognoza pogody dla ponad 4000 lotnisk (raport METAR i TAF).

Dostępne stacje oznaczono żółtymi i czerwonymi punktami na mapie.

Najedź kursorem aby zobaczyć nazwę stacji.

Kliknij aby zobaczyć obserwacje i prognozy pogody.

Aby zmienić mapę: kliknij na zielony przycisk z czarnym krzyżykiem, aby powiększyć; na zielony przycisk z myślnikiem, aby pomniejszyć; na zielone strzałki, aby przejść do map sąsiednich.


METAR-TAF: